LIPH/TSF METAR and TAF weather

Enter ICAO airport designator
Station Type Date Time Source
LIPH METAR 2019/11/22 00:50 UTC NOAA

LIPH 220050Z AUTO 01003KT 2800 BR BKN046/// BKN073/// 09/09 Q1013


Station Type Date Time Source
LIPH Decoded METAR 2019/11/22 00:50 UTC NOAA

Treviso / S. Angelo, Italy (LIPH) 45-39N 012-11E 23M
Nov 21, 2019 - 07:50 PM EST / 2019.11.22 0050 UTC
Wind: from the N (010 degrees) at 3 MPH (3 KT):0
Visibility: 1 mile(s):0
Sky conditions: mostly cloudy
Weather: mist
Temperature: 48 F (9 C)
Dew Point: 48 F (9 C)
Relative Humidity: 100%
Pressure (altimeter): 29.91 in. Hg (1013 hPa)
ob: LIPH 220050Z AUTO 01003KT 2800 BR BKN046/// BKN073/// 09/09 Q1013
cycle: 1

Station Type Date Time Source
LIPH TAF 2019/11/21 18:21 UTC NOAA

TAF LIPH 211700Z 2118/2218 VRB03KT 4000 BR BKN010
BECMG 2118/2120 1500 BR
BECMG 2122/2201 0500 FG
BECMG 2208/2210 6000

Example: see airport list